Time;durP1;ratioP1;P1;durP2;ratioP2;P2;SDS_P1;SDS_P2;PMS_P1;PMS_P2;Temp;Humidity;BMP_temperature;BMP_pressure;BME280_temperature;BME280_humidity;BME280_pressure;Samples;Min_cycle;Max_cycle;Signal;HPM_P1;HPM_P2
2023/08/08 00:00:48;;;;;;;0.68;0.00;;;;;;;14.32;100.00;100743.38;5047669;28;20051;-70
2023/08/08 00:03:13;;;;;;;2.50;0.05;;;;;;;14.29;100.00;100736.66;5048235;28;20110;-70
2023/08/08 00:05:39;;;;;;;0.68;0.10;;;;;;;14.24;100.00;100738.94;5045268;28;20491;-70
2023/08/08 00:08:05;;;;;;;0.57;0.00;;;;;;;14.19;100.00;100737.78;5040625;28;20053;-70
2023/08/08 00:10:30;;;;;;;0.15;0.00;;;;;;;14.13;100.00;100741.06;5046775;28;20055;-70
2023/08/08 00:12:56;;;;;;;0.55;0.10;;;;;;;14.05;100.00;100746.28;5045264;28;20437;-70
2023/08/08 00:15:21;;;;;;;1.35;0.00;;;;;;;13.99;100.00;100750.34;5041974;28;20037;-70
2023/08/08 00:17:47;;;;;;;0.30;0.03;;;;;;;14.00;100.00;100761.66;5049260;28;20568;-70
2023/08/08 00:20:13;;;;;;;0.30;0.10;;;;;;;14.01;100.00;100758.06;5053424;28;20453;-71
2023/08/08 00:22:39;;;;;;;0.28;0.00;;;;;;;14.01;100.00;100758.06;5052661;28;20041;-70
2023/08/08 00:25:05;;;;;;;1.20;0.10;;;;;;;13.97;100.00;100761.97;5047404;28;20055;-70
2023/08/08 00:27:30;;;;;;;0.43;0.00;;;;;;;13.95;100.00;100762.13;5050682;28;20068;-70
2023/08/08 00:29:55;;;;;;;0.77;0.13;;;;;;;13.94;100.00;100761.31;5046675;28;20536;-70
2023/08/08 00:32:21;;;;;;;1.95;0.10;;;;;;;14.00;100.00;100769.50;5049348;28;20116;-70
2023/08/08 00:34:46;;;;;;;1.08;0.10;;;;;;;13.97;100.00;100767.22;5052019;28;20040;-70
2023/08/08 00:37:11;;;;;;;1.35;0.10;;;;;;;13.93;100.00;100767.53;5050632;28;20028;-71
2023/08/08 00:39:37;;;;;;;0.30;0.00;;;;;;;13.87;100.00;100778.63;5047104;28;20508;-71
2023/08/08 00:42:03;;;;;;;0.17;0.00;;;;;;;13.83;100.00;100779.09;5046443;28;20037;-70
2023/08/08 00:44:28;;;;;;;0.20;0.00;;;;;;;13.75;100.00;100773.81;5051355;28;20049;-70
2023/08/08 00:46:54;;;;;;;0.40;0.10;;;;;;;13.79;100.00;100783.00;5050575;28;20036;-70
2023/08/08 00:49:20;;;;;;;0.50;0.08;;;;;;;13.77;100.00;100788.41;5052492;28;20136;-70
2023/08/08 00:51:46;;;;;;;0.30;0.10;;;;;;;13.73;100.00;100787.09;5045887;28;20033;-70
2023/08/08 00:54:13;;;;;;;0.10;0.00;;;;;;;13.72;100.00;100789.84;5047843;28;20098;-70
2023/08/08 00:56:38;;;;;;;0.30;0.00;;;;;;;13.76;100.00;100791.19;5051084;28;20112;-70
2023/08/08 00:59:04;;;;;;;1.65;0.00;;;;;;;13.70;100.00;100797.06;5047642;28;20194;-70
2023/08/08 01:01:29;;;;;;;0.45;0.00;;;;;;;13.65;100.00;100796.72;5049573;28;20373;-70
2023/08/08 01:03:55;;;;;;;0.20;0.00;;;;;;;13.67;100.00;100792.97;5050465;28;20037;-70
2023/08/08 01:06:32;;;;;;;0.43;0.10;;;;;;;13.68;100.00;100794.63;5051677;28;20070;-70
2023/08/08 01:09:04;;;;;;;0.20;0.00;;;;;;;13.67;100.00;100790.34;5047295;28;20092;-70
2023/08/08 01:11:32;;;;;;;0.10;0.00;;;;;;;13.64;100.00;100787.22;5051034;28;20495;-70
2023/08/08 01:13:59;;;;;;;3.75;0.10;;;;;;;13.82;100.00;100790.56;5050575;28;20033;-69
2023/08/08 01:16:26;;;;;;;0.38;0.00;;;;;;;13.87;100.00;100788.28;5049114;28;20029;-70
2023/08/08 01:18:52;;;;;;;0.30;0.00;;;;;;;13.80;100.00;100789.91;5048369;28;20048;-71
2023/08/08 01:21:19;;;;;;;0.20;0.00;;;;;;;13.72;100.00;100788.06;5052219;28;20527;-71
2023/08/08 01:23:58;;;;;;;1.67;0.10;;;;;;;13.72;100.00;100789.84;5049784;28;20029;-70
2023/08/08 01:26:23;;;;;;;0.32;0.10;;;;;;;13.69;100.00;100784.97;5042467;28;20025;-70
2023/08/08 01:28:53;;;;;;;0.77;0.10;;;;;;;13.59;100.00;100785.88;5047405;28;20361;-70
2023/08/08 01:31:18;;;;;;;0.30;0.00;;;;;;;13.49;100.00;100785.19;5047478;28;20037;-70
2023/08/08 01:33:44;;;;;;;0.22;0.10;;;;;;;13.46;100.00;100780.25;5043260;28;20108;-70
2023/08/08 01:36:39;;;;;;;0.88;0.10;;;;;;;13.43;100.00;100783.19;5049857;28;20024;-70
2023/08/08 01:39:13;;;;;;;0.10;0.10;;;;;;;13.42;100.00;100789.38;5049286;28;20037;-70
2023/08/08 01:41:40;;;;;;;0.10;0.00;;;;;;;13.36;100.00;100782.16;5049489;28;20235;-70
2023/08/08 01:44:06;;;;;;;0.30;0.00;;;;;;;13.37;100.00;100785.59;5051097;28;20115;-70
2023/08/08 01:46:33;;;;;;;0.22;0.10;;;;;;;13.41;100.00;100786.94;5047986;28;20148;-70
2023/08/08 01:48:59;;;;;;;0.60;0.00;;;;;;;13.44;100.00;100792.69;5050846;28;20090;-70
2023/08/08 01:51:25;;;;;;;0.30;0.03;;;;;;;13.72;100.00;100795.09;5045472;28;20024;-70
2023/08/08 01:53:52;;;;;;;1.75;0.08;;;;;;;13.90;100.00;100799.28;5045396;28;20040;-70
2023/08/08 01:56:17;;;;;;;0.10;0.00;;;;;;;14.05;100.00;100796.06;5045976;28;20028;-70
2023/08/08 01:58:42;;;;;;;0.30;0.03;;;;;;;14.13;100.00;100793.47;5049437;28;20033;-70
2023/08/08 02:01:08;;;;;;;0.35;0.10;;;;;;;14.17;100.00;100795.63;5048244;28;20029;-70
2023/08/08 02:03:34;;;;;;;1.00;0.00;;;;;;;14.24;100.00;100795.75;5048568;28;20045;-71
2023/08/08 02:05:59;;;;;;;0.38;0.00;;;;;;;14.28;100.00;100786.59;5050837;28;20043;-70
2023/08/08 02:08:24;;;;;;;0.10;0.03;;;;;;;14.24;100.00;100793.97;5049046;28;20033;-70
2023/08/08 02:10:50;;;;;;;2.05;0.20;;;;;;;14.23;100.00;100800.19;5050648;28;20043;-70
2023/08/08 02:13:15;;;;;;;1.20;0.00;;;;;;;14.22;100.00;100793.31;5046095;28;20029;-69
2023/08/08 02:15:41;;;;;;;0.40;0.00;;;;;;;14.24;100.00;100799.22;5046313;28;20031;-70
2023/08/08 02:18:08;;;;;;;0.13;0.00;;;;;;;14.31;100.00;100790.72;5048267;28;20044;-70
2023/08/08 02:20:34;;;;;;;0.08;0.00;;;;;;;14.34;100.00;100793.00;5051286;28;20075;-70
2023/08/08 02:22:59;;;;;;;1.10;0.00;;;;;;;14.32;100.00;100784.47;5048025;28;20028;-69
2023/08/08 02:25:25;;;;;;;0.65;0.00;;;;;;;14.33;100.00;100784.31;5050102;28;20039;-70
2023/08/08 02:27:50;;;;;;;0.10;0.00;;;;;;;14.28;100.00;100787.44;5048035;28;20040;-70
2023/08/08 02:30:15;;;;;;;2.25;0.08;;;;;;;14.28;100.00;100783.97;5047477;28;20028;-70
2023/08/08 02:32:42;;;;;;;0.40;0.10;;;;;;;14.28;100.00;100779.56;5047042;28;20028;-70
2023/08/08 02:35:07;;;;;;;0.13;0.00;;;;;;;14.18;100.00;100778.88;5049838;28;20033;-70
2023/08/08 02:37:33;;;;;;;0.77;0.10;;;;;;;14.03;100.00;100779.69;5046197;28;20021;-70
2023/08/08 02:39:58;;;;;;;1.35;0.05;;;;;;;14.12;100.00;100779.53;5046772;28;20070;-70
2023/08/08 02:42:24;;;;;;;0.75;0.00;;;;;;;14.35;100.00;100778.91;5047643;28;20028;-70
2023/08/08 02:44:49;;;;;;;0.40;0.05;;;;;;;14.42;100.00;100782.56;5045898;28;20416;-70
2023/08/08 02:47:14;;;;;;;1.75;0.10;;;;;;;14.52;99.74;100783.25;5047719;28;20032;-70
2023/08/08 02:49:40;;;;;;;0.10;0.03;;;;;;;14.64;97.61;100792.44;5049668;28;20123;-70
2023/08/08 02:52:06;;;;;;;1.02;0.00;;;;;;;14.67;97.42;100781.59;5044366;28;20036;-70
2023/08/08 02:54:31;;;;;;;1.67;0.10;;;;;;;14.64;99.83;100781.97;5048694;28;20021;-70
2023/08/08 02:56:56;;;;;;;0.20;0.00;;;;;;;14.51;100.00;100786.84;5046634;28;20036;-70
2023/08/08 02:59:22;;;;;;;0.30;0.00;;;;;;;14.28;100.00;100783.97;5041671;28;20030;-70
2023/08/08 03:01:47;;;;;;;0.25;0.00;;;;;;;14.17;100.00;100787.75;5048367;28;20470;-70
2023/08/08 03:04:13;;;;;;;0.30;0.00;;;;;;;14.23;100.00;100783.63;5049606;28;20142;-70
2023/08/08 03:06:38;;;;;;;0.30;0.10;;;;;;;14.23;100.00;100781.03;5043929;28;20025;-70
2023/08/08 03:09:05;;;;;;;1.17;0.00;;;;;;;14.15;100.00;100791.50;5044293;28;20037;-70
2023/08/08 03:11:30;;;;;;;0.15;0.00;;;;;;;14.06;100.00;100788.03;5049101;28;20358;-70
2023/08/08 03:13:55;;;;;;;5.88;1.25;;;;;;;14.15;100.00;100788.88;5046323;28;20037;-70
2023/08/08 03:16:21;;;;;;;0.60;0.08;;;;;;;14.20;100.00;100791.81;5044698;28;20495;-70
2023/08/08 03:18:46;;;;;;;0.60;0.00;;;;;;;14.21;100.00;100793.47;5048197;28;20071;-70
2023/08/08 03:21:12;;;;;;;0.73;0.00;;;;;;;14.23;100.00;100801.97;5049426;28;20036;-70
2023/08/08 03:23:37;;;;;;;0.20;0.00;;;;;;;14.24;100.00;100803.63;5049098;28;20438;-70
2023/08/08 03:26:02;;;;;;;0.20;0.00;;;;;;;14.17;100.00;100802.66;5047009;28;20420;-70
2023/08/08 03:28:28;;;;;;;0.45;0.05;;;;;;;14.08;100.00;100798.38;5041079;28;20044;-70
2023/08/08 03:30:53;;;;;;;1.05;0.10;;;;;;;14.07;100.00;100799.34;5046944;28;20040;-70
2023/08/08 03:33:19;;;;;;;0.47;0.00;;;;;;;14.11;100.00;100796.25;5048172;28;20345;-70
2023/08/08 03:35:44;;;;;;;0.88;0.03;;;;;;;14.23;99.91;100794.94;5048338;28;20025;-70
2023/08/08 03:38:09;;;;;;;0.30;0.10;;;;;;;14.30;100.00;100795.13;5044426;28;20068;-70
2023/08/08 03:40:35;;;;;;;0.22;0.00;;;;;;;14.29;100.00;100789.06;5048426;28;20102;-70
2023/08/08 03:43:00;;;;;;;2.40;0.00;;;;;;;14.21;100.00;100785.59;5044487;28;20095;-70
2023/08/08 03:45:27;;;;;;;0.80;0.10;;;;;;;14.16;100.00;100787.91;5049077;28;20036;-70
2023/08/08 03:47:52;;;;;;;1.17;0.10;;;;;;;14.25;99.64;100792.16;5044734;28;20556;-70
2023/08/08 03:50:18;;;;;;;0.20;0.03;;;;;;;14.31;98.55;100788.09;5049951;28;20036;-70
2023/08/08 03:52:43;;;;;;;0.10;0.00;;;;;;;14.45;96.07;100790.13;5049141;28;20071;-70
2023/08/08 03:55:08;;;;;;;0.32;0.08;;;;;;;14.55;96.65;100793.41;5049403;28;20111;-70
2023/08/08 03:57:34;;;;;;;1.65;0.10;;;;;;;14.47;98.22;100802.09;5049138;28;20131;-70
2023/08/08 03:59:59;;;;;;;0.40;0.10;;;;;;;14.32;99.57;100805.44;5052026;28;20051;-70
2023/08/08 04:02:25;;;;;;;0.20;0.00;;;;;;;14.16;100.00;100804.44;5053034;28;20381;-70
2023/08/08 04:04:51;;;;;;;1.95;0.03;;;;;;;14.05;100.00;100806.53;5052443;28;20041;-70
2023/08/08 04:07:16;;;;;;;1.42;0.00;;;;;;;14.09;98.81;100813.09;5050436;28;20091;-70
2023/08/08 04:09:42;;;;;;;0.47;0.03;;;;;;;14.25;98.03;100819.19;5049685;28;20033;-70
2023/08/08 04:12:08;;;;;;;0.20;0.00;;;;;;;14.20;99.13;100823.28;5047055;28;20417;-70
2023/08/08 04:14:33;;;;;;;0.75;0.13;;;;;;;14.21;99.40;100827.53;5050906;28;20033;-70
2023/08/08 04:16:59;;;;;;;0.47;0.10;;;;;;;14.17;99.78;100827.06;5046427;28;20045;-72
2023/08/08 04:19:24;;;;;;;0.28;0.00;;;;;;;14.18;100.00;100827.84;5053483;28;20033;-71
2023/08/08 04:21:50;;;;;;;1.65;0.00;;;;;;;14.10;99.55;100831.28;5048252;28;20746;-72
2023/08/08 04:24:15;;;;;;;0.30;0.10;;;;;;;14.07;99.96;100828.97;5050377;28;20029;-72
2023/08/08 04:26:40;;;;;;;0.40;0.00;;;;;;;14.14;100.00;100837.03;5047363;28;20040;-72
2023/08/08 04:29:06;;;;;;;2.05;0.10;;;;;;;14.16;99.24;100835.91;5049240;28;20032;-71
2023/08/08 04:31:31;;;;;;;1.00;0.22;;;;;;;14.22;100.00;100826.56;5051161;28;20029;-71
2023/08/08 04:34:00;;;;;;;1.23;0.20;;;;;;;14.19;100.00;100824.25;5050459;28;20037;-71
2023/08/08 04:36:28;;;;;;;0.10;0.00;;;;;;;14.16;100.00;100829.84;5045447;28;20480;-71
2023/08/08 04:38:54;;;;;;;1.48;0.10;;;;;;;14.38;97.47;100816.13;5049199;28;20051;-71
2023/08/08 04:41:19;;;;;;;0.38;0.10;;;;;;;14.69;93.77;100826.84;5049451;28;20477;-70
2023/08/08 04:43:45;;;;;;;0.82;0.10;;;;;;;14.86;92.51;100823.25;5051446;28;20147;-70
2023/08/08 04:46:11;;;;;;;2.58;0.10;;;;;;;14.97;91.70;100826.53;5050863;28;20082;-70
2023/08/08 04:48:37;;;;;;;0.95;0.10;;;;;;;15.09;88.95;100826.06;5046680;28;20041;-70
2023/08/08 04:51:06;;;;;;;0.38;0.00;;;;;;;15.25;87.65;100828.63;5047391;28;20218;-70
2023/08/08 04:53:32;;;;;;;0.95;0.10;;;;;;;15.36;87.30;100829.28;5046891;28;20109;-70
2023/08/08 04:55:57;;;;;;;1.90;0.10;;;;;;;15.40;86.00;100834.03;5049895;28;20124;-70
2023/08/08 04:58:23;;;;;;;0.98;0.15;;;;;;;15.45;86.54;100838.78;5049551;28;20020;-70
2023/08/08 05:00:49;;;;;;;1.67;0.20;;;;;;;15.47;87.07;100836.81;5046615;28;20499;-70
2023/08/08 05:03:15;;;;;;;0.50;0.10;;;;;;;15.50;91.47;100845.19;5049280;28;20029;-70
2023/08/08 05:05:40;;;;;;;0.45;0.10;;;;;;;15.42;94.58;100850.44;5049631;28;20044;-70
2023/08/08 05:08:06;;;;;;;2.03;0.10;;;;;;;15.32;96.06;100860.31;5049384;28;20067;-69
2023/08/08 05:10:31;;;;;;;0.10;0.00;;;;;;;15.28;95.68;100853.75;5052255;28;20033;-70
2023/08/08 05:12:57;;;;;;;0.75;0.00;;;;;;;15.27;94.45;100854.72;5049918;28;20152;-70
2023/08/08 05:15:22;;;;;;;0.35;0.05;;;;;;;15.37;93.00;100858.00;5050198;28;20024;-70
2023/08/08 05:17:48;;;;;;;1.17;0.00;;;;;;;15.47;91.97;100857.84;5049087;28;20057;-69
2023/08/08 05:20:14;;;;;;;0.05;0.00;;;;;;;15.55;90.89;100866.53;5050335;28;20031;-70
2023/08/08 05:22:39;;;;;;;0.20;0.00;;;;;;;15.66;89.24;100857.47;5044412;28;20036;-70
2023/08/08 05:25:05;;;;;;;0.20;0.00;;;;;;;15.74;89.54;100869.78;5042825;28;20392;-70
2023/08/08 05:27:31;;;;;;;0.10;0.00;;;;;;;15.82;88.60;100875.00;5048877;28;20132;-70
2023/08/08 05:29:56;;;;;;;0.85;0.00;;;;;;;15.78;88.89;100876.34;5048789;28;20037;-70
2023/08/08 05:32:22;;;;;;;1.42;0.03;;;;;;;15.78;88.81;100878.97;5047487;28;20029;-70
2023/08/08 05:34:49;;;;;;;0.40;0.10;;;;;;;15.75;89.06;100882.75;5049725;28;20519;-70
2023/08/08 05:37:14;;;;;;;0.25;0.10;;;;;;;15.81;90.56;100876.81;5046495;28;20036;-70
2023/08/08 05:39:39;;;;;;;1.92;0.03;;;;;;;15.84;90.39;100883.53;5043320;28;20040;-70
2023/08/08 05:42:05;;;;;;;2.15;0.00;;;;;;;15.82;90.92;100882.91;5046328;28;20025;-70
2023/08/08 05:44:31;;;;;;;5.03;0.00;;;;;;;15.81;90.02;100883.88;5047359;28;20061;-69
2023/08/08 05:46:56;;;;;;;3.60;0.08;;;;;;;15.82;88.49;100888.16;5044323;28;20037;-70
2023/08/08 05:49:22;;;;;;;0.20;0.00;;;;;;;15.81;87.30;100886.50;5046838;28;20054;-70
2023/08/08 05:51:47;;;;;;;0.30;0.00;;;;;;;15.83;86.42;100885.34;5046066;28;20037;-71
2023/08/08 05:54:12;;;;;;;0.40;0.03;;;;;;;15.84;86.35;100894.06;5049603;28;20108;-70
2023/08/08 05:56:38;;;;;;;0.85;0.00;;;;;;;15.92;85.90;100889.59;5044229;28;20094;-71
2023/08/08 05:59:03;;;;;;;0.75;0.10;;;;;;;16.02;85.51;100893.84;5047885;28;20553;-67
2023/08/08 06:01:30;;;;;;;1.85;0.10;;;;;;;16.23;84.46;100888.81;5046604;28;20067;-67
2023/08/08 06:03:55;;;;;;;0.47;0.10;;;;;;;16.33;84.16;100894.69;5047397;28;20033;-68
2023/08/08 06:06:21;;;;;;;0.25;0.03;;;;;;;16.33;84.49;100892.06;5049991;28;20041;-68
2023/08/08 06:08:46;;;;;;;1.58;0.10;;;;;;;16.23;84.65;100892.28;5048219;28;20029;-68
2023/08/08 06:11:12;;;;;;;0.30;0.03;;;;;;;16.26;84.78;100894.56;5051264;28;20122;-68
2023/08/08 06:13:37;;;;;;;0.50;0.10;;;;;;;16.39;84.63;100890.56;5048561;28;20028;-68
2023/08/08 06:16:06;;;;;;;0.10;0.00;;;;;;;16.57;84.38;100893.75;5049621;28;20050;-67
2023/08/08 06:18:35;;;;;;;0.20;0.10;;;;;;;16.80;83.21;100893.81;5049190;28;20060;-68
2023/08/08 06:21:01;;;;;;;3.03;0.35;;;;;;;16.92;83.24;100901.13;5050173;28;20036;-67
2023/08/08 06:23:26;;;;;;;0.50;0.00;;;;;;;17.00;80.17;100896.81;5047387;28;20025;-68
2023/08/08 06:25:51;;;;;;;1.55;0.00;;;;;;;17.10;81.13;100900.00;5043403;28;20564;-68
2023/08/08 06:28:17;;;;;;;5.07;1.02;;;;;;;17.23;80.99;100902.88;5048226;28;20025;-68
2023/08/08 06:30:42;;;;;;;0.20;0.00;;;;;;;17.29;80.59;100903.97;5046786;28;20028;-67
2023/08/08 06:33:08;;;;;;;0.25;0.05;;;;;;;17.34;81.56;100905.06;5046827;28;20043;-67
2023/08/08 06:35:34;;;;;;;1.27;0.00;;;;;;;17.50;81.96;100907.53;5046563;28;20668;-68
2023/08/08 06:37:59;;;;;;;0.65;0.03;;;;;;;17.73;81.88;100904.91;5047751;28;20064;-68
2023/08/08 06:40:25;;;;;;;1.92;0.68;;;;;;;17.74;80.86;100897.81;5047105;28;20036;-68
2023/08/08 06:42:50;;;;;;;2.38;0.10;;;;;;;17.65;79.67;100893.59;5045536;28;20468;-68
2023/08/08 06:45:16;;;;;;;0.55;0.00;;;;;;;17.68;79.19;100899.34;5047890;28;20103;-67
2023/08/08 06:47:41;;;;;;;1.65;0.47;;;;;;;17.77;77.29;100908.81;5039160;28;20033;-68
2023/08/08 06:50:07;;;;;;;0.10;0.00;;;;;;;17.94;77.65;100898.09;5045177;28;20138;-67
2023/08/08 06:52:33;;;;;;;0.95;0.00;;;;;;;18.17;75.72;100910.16;5042923;28;20033;-68
2023/08/08 06:54:58;;;;;;;0.60;0.10;;;;;;;18.33;77.14;100910.97;5047155;28;20095;-68
2023/08/08 06:57:23;;;;;;;0.20;0.00;;;;;;;18.45;77.23;100917.38;5044449;28;20056;-68
2023/08/08 06:59:50;;;;;;;0.52;0.08;;;;;;;18.53;77.47;100914.66;5046464;28;20073;-67
2023/08/08 07:02:17;;;;;;;0.15;0.00;;;;;;;18.53;77.44;100922.56;5040274;28;20036;-68
2023/08/08 07:04:42;;;;;;;0.90;0.10;;;;;;;18.54;76.82;100924.22;5043448;28;20135;-68
2023/08/08 07:07:08;;;;;;;4.22;0.00;;;;;;;18.52;74.74;100926.22;5042912;28;20079;-67
2023/08/08 07:09:33;;;;;;;0.10;0.00;;;;;;;18.53;75.57;100930.47;5042650;28;20037;-68
2023/08/08 07:11:59;;;;;;;0.95;0.10;;;;;;;18.50;76.92;100930.84;5043279;28;20060;-68
2023/08/08 07:14:24;;;;;;;0.10;0.00;;;;;;;18.51;76.19;100927.22;5040384;28;20037;-67
2023/08/08 07:16:50;;;;;;;2.05;0.00;;;;;;;18.54;76.01;100926.84;5044977;28;20045;-68
2023/08/08 07:19:15;;;;;;;0.50;0.10;;;;;;;18.70;76.37;100921.38;5048295;28;20334;-68
2023/08/08 07:21:41;;;;;;;0.68;0.10;;;;;;;18.78;75.40;100920.47;5043240;28;20040;-67
2023/08/08 07:24:07;;;;;;;0.68;0.10;;;;;;;18.80;77.25;100932.47;5046220;28;20116;-68
2023/08/08 07:26:32;;;;;;;0.10;0.00;;;;;;;18.73;76.91;100926.28;5049770;28;20538;-68
2023/08/08 07:28:57;;;;;;;0.65;0.03;;;;;;;18.68;76.78;100918.13;5046932;28;20033;-67
2023/08/08 07:31:23;;;;;;;1.38;0.00;;;;;;;18.73;75.02;100913.09;5045535;28;20039;-67
2023/08/08 07:33:48;;;;;;;0.10;0.00;;;;;;;18.93;74.75;100915.09;5045173;28;20037;-67
2023/08/08 07:36:14;;;;;;;0.10;0.00;;;;;;;19.12;75.24;100915.31;5049390;28;20123;-67
2023/08/08 07:38:39;;;;;;;0.38;0.00;;;;;;;19.34;74.21;100912.66;5048608;28;20033;-66
2023/08/08 07:41:05;;;;;;;0.22;0.00;;;;;;;19.52;73.98;100916.47;5049473;28;20437;-67
2023/08/08 07:43:30;;;;;;;0.00;0.00;;;;;;;19.58;73.66;100914.06;5036704;28;20037;-67
2023/08/08 07:45:56;;;;;;;0.10;0.00;;;;;;;19.76;73.18;100912.59;5043905;28;20047;-67
2023/08/08 07:48:21;;;;;;;0.40;0.00;;;;;;;19.98;70.14;100909.84;5041091;28;20041;-67
2023/08/08 07:50:46;;;;;;;1.08;0.00;;;;;;;20.06;70.16;100918.44;5043067;28;20036;-67
2023/08/08 07:53:12;;;;;;;0.20;0.00;;;;;;;19.96;69.61;100917.16;5044452;28;20047;-67
2023/08/08 07:55:37;;;;;;;0.35;0.00;;;;;;;19.84;71.47;100923.00;5049000;28;20033;-67
2023/08/08 07:58:03;;;;;;;0.00;0.00;;;;;;;19.79;71.48;100925.41;5049117;28;20031;-67
2023/08/08 08:00:28;;;;;;;0.20;0.00;;;;;;;19.79;71.29;100921.97;5044812;28;20036;-66
2023/08/08 08:02:54;;;;;;;0.35;0.00;;;;;;;19.77;70.88;100922.16;5046925;28;20047;-67
2023/08/08 08:05:19;;;;;;;0.60;0.00;;;;;;;19.70;71.33;100918.63;5043909;28;20029;-66
2023/08/08 08:07:46;;;;;;;0.17;0.00;;;;;;;19.65;71.34;100914.94;5044353;28;20037;-66
2023/08/08 08:10:13;;;;;;;0.20;0.00;;;;;;;19.57;70.96;100910.63;5046854;28;20400;-67
2023/08/08 08:12:39;;;;;;;1.20;0.00;;;;;;;19.62;71.35;100904.75;5047242;28;20033;-67
2023/08/08 08:15:05;;;;;;;1.38;0.10;;;;;;;19.85;71.73;100908.75;5040797;28;20075;-66
2023/08/08 08:17:30;;;;;;;0.30;0.00;;;;;;;20.14;69.79;100902.41;5046763;28;20135;-66
2023/08/08 08:19:55;;;;;;;4.88;0.10;;;;;;;20.61;68.07;100906.06;5043227;28;20040;-66
2023/08/08 08:22:21;;;;;;;0.85;0.03;;;;;;;20.79;68.86;100910.81;5047484;28;20027;-66
2023/08/08 08:24:47;;;;;;;4.55;0.10;;;;;;;21.09;68.56;100911.25;5048398;28;20078;-66
2023/08/08 08:27:12;;;;;;;0.75;0.13;;;;;;;21.05;69.61;100912.69;5049392;28;20360;-66
2023/08/08 08:29:39;;;;;;;1.60;0.10;;;;;;;20.81;68.96;100908.75;5049463;28;20124;-71
2023/08/08 08:32:04;;;;;;;0.10;0.00;;;;;;;20.69;69.24;100916.50;5043213;28;20036;-66
2023/08/08 08:34:30;;;;;;;0.70;0.10;;;;;;;20.54;69.49;100910.53;5044265;28;20033;-67
2023/08/08 08:36:55;;;;;;;0.93;0.10;;;;;;;20.47;68.81;100917.63;5045480;28;20086;-66
2023/08/08 08:39:21;;;;;;;0.10;0.00;;;;;;;20.46;69.66;100918.66;5050018;28;20055;-66
2023/08/08 08:41:51;;;;;;;1.63;0.00;;;;;;;20.51;69.73;100917.03;5051294;28;20384;-66
2023/08/08 08:44:17;;;;;;;1.00;0.10;;;;;;;20.69;70.94;100911.19;5042599;28;20037;-66
2023/08/08 08:46:44;;;;;;;0.13;0.00;;;;;;;20.80;69.73;100915.06;5047194;28;20047;-67
2023/08/08 08:49:10;;;;;;;0.10;0.00;;;;;;;21.14;68.43;100903.53;5047921;28;20032;-66
2023/08/08 08:51:36;;;;;;;0.20;0.00;;;;;;;21.22;67.02;100908.66;5047269;28;20049;-66
2023/08/08 08:54:02;;;;;;;0.73;0.00;;;;;;;21.06;65.97;100899.22;5046025;28;20068;-66
2023/08/08 08:56:28;;;;;;;0.47;0.05;;;;;;;21.15;63.94;100900.66;5046885;28;20047;-66
2023/08/08 08:58:54;;;;;;;0.38;0.38;;;;;;;21.39;64.98;100899.25;5049840;28;20330;-66
2023/08/08 09:01:22;;;;;;;0.10;0.00;;;;;;;21.64;61.93;100890.69;5045418;28;20053;-65
2023/08/08 09:03:48;;;;;;;1.95;0.00;;;;;;;21.62;61.83;100898.03;5043609;28;20756;-66
2023/08/08 09:06:16;;;;;;;0.00;0.00;;;;;;;21.63;61.91;100894.34;5047646;28;20028;-66
2023/08/08 09:08:41;;;;;;;0.70;0.00;;;;;;;21.63;62.75;100897.00;5042144;28;20036;-66
2023/08/08 09:11:07;;;;;;;0.00;0.00;;;;;;;21.76;62.03;100894.31;5042678;28;20029;-66
2023/08/08 09:13:39;;;;;;;0.17;0.00;;;;;;;21.94;59.02;100894.47;5045979;28;20425;-66
2023/08/08 09:16:09;;;;;;;0.90;0.00;;;;;;;22.09;58.84;100894.25;5046870;28;20053;-66
2023/08/08 09:18:38;;;;;;;0.63;0.00;;;;;;;22.13;59.34;100896.28;5044176;28;20547;-66
2023/08/08 09:21:04;;;;;;;0.20;0.00;;;;;;;22.27;58.67;100893.56;5047107;28;20033;-66
2023/08/08 09:23:29;;;;;;;0.03;0.00;;;;;;;22.46;59.06;100890.81;5044896;28;20374;-66
2023/08/08 09:25:55;;;;;;;3.10;0.00;;;;;;;22.61;59.92;100890.56;5047940;28;20051;-66
2023/08/08 09:28:20;;;;;;;0.08;0.00;;;;;;;22.50;59.05;100893.88;5050608;28;20052;-66
2023/08/08 09:30:46;;;;;;;0.13;0.00;;;;;;;22.49;59.16;100887.75;5046026;28;20390;-66
2023/08/08 09:33:12;;;;;;;0.70;0.10;;;;;;;22.47;57.35;100889.81;5046059;28;20035;-65
2023/08/08 09:35:38;;;;;;;0.20;0.00;;;;;;;22.41;55.93;100897.78;5045319;28;20047;-65
2023/08/08 09:38:04;;;;;;;0.08;0.00;;;;;;;22.50;55.79;100891.22;5048310;28;20029;-65
2023/08/08 09:40:30;;;;;;;0.20;0.00;;;;;;;22.48;56.20;100883.47;5051218;28;20032;-65
2023/08/08 09:42:58;;;;;;;0.40;0.00;;;;;;;22.35;56.07;100886.19;5045516;28;21129;-65
2023/08/08 09:45:24;;;;;;;0.10;0.00;;;;;;;22.40;57.18;100880.22;5045887;28;20424;-66
2023/08/08 09:47:52;;;;;;;0.22;0.00;;;;;;;22.58;58.10;100872.38;5046366;28;20021;-65
2023/08/08 09:50:19;;;;;;;0.20;0.03;;;;;;;22.66;58.00;100874.78;5041027;28;20044;-65
2023/08/08 09:52:46;;;;;;;0.10;0.00;;;;;;;22.67;57.96;100871.09;5046419;28;20033;-65
2023/08/08 09:55:11;;;;;;;1.15;0.00;;;;;;;22.61;58.19;100871.97;5048010;28;20052;-65
2023/08/08 09:57:39;;;;;;;0.00;0.00;;;;;;;22.51;55.59;100871.59;5046146;28;20484;-65
2023/08/08 10:00:10;;;;;;;0.20;0.00;;;;;;;22.48;56.66;100874.69;5045896;28;20118;-65
2023/08/08 10:02:36;;;;;;;0.10;0.00;;;;;;;22.61;56.56;100876.47;5046211;28;20157;-65
2023/08/08 10:05:03;;;;;;;0.15;0.00;;;;;;;22.52;56.75;100873.22;5046480;28;20041;-65
2023/08/08 10:07:30;;;;;;;1.92;0.00;;;;;;;22.49;55.71;100868.34;5046120;28;20053;-65
2023/08/08 10:09:56;;;;;;;0.10;0.00;;;;;;;22.43;54.42;100866.53;5044806;28;20113;-65
2023/08/08 10:12:23;;;;;;;0.08;0.00;;;;;;;22.37;50.81;100864.72;5047202;28;20032;-65
2023/08/08 10:14:49;;;;;;;0.93;0.00;;;;;;;22.30;52.39;100870.06;5044001;28;20496;-65
2023/08/08 10:17:15;;;;;;;0.73;0.00;;;;;;;22.18;53.25;100872.59;5045410;28;20409;-65
2023/08/08 10:19:51;;;;;;;0.50;0.00;;;;;;;22.10;51.27;100872.81;5050747;28;20033;-65
2023/08/08 10:22:22;;;;;;;0.00;0.00;;;;;;;22.30;53.20;100875.38;5050141;28;20037;-65
2023/08/08 10:24:51;;;;;;;0.08;0.00;;;;;;;22.50;52.38;100867.31;5048642;28;20043;-65
2023/08/08 10:27:28;;;;;;;0.30;0.00;;;;;;;22.43;51.61;100870.00;5050954;28;20032;-65
2023/08/08 10:29:53;;;;;;;0.20;0.00;;;;;;;22.42;54.41;100864.91;5048419;28;20507;-66
2023/08/08 10:32:25;;;;;;;0.00;0.00;;;;;;;22.38;55.77;100869.00;5049168;28;20146;-65
2023/08/08 10:34:56;;;;;;;0.10;0.00;;;;;;;22.59;55.54;100867.88;5045683;28;20432;-66
2023/08/08 10:37:27;;;;;;;0.05;0.00;;;;;;;22.83;54.72;100869.78;5043294;28;20136;-66
2023/08/08 10:39:59;;;;;;;0.10;0.00;;;;;;;22.92;54.67;100862.38;5044804;28;20028;-65
2023/08/08 10:42:30;;;;;;;0.00;0.00;;;;;;;22.84;54.40;100866.91;5047029;28;20037;-66
2023/08/08 10:45:00;;;;;;;0.20;0.00;;;;;;;22.70;55.38;100865.34;5044545;28;20033;-66
2023/08/08 10:47:31;;;;;;;0.38;0.00;;;;;;;22.77;55.91;100860.81;5046019;28;20033;-66
2023/08/08 10:50:03;;;;;;;0.15;0.00;;;;;;;22.89;56.32;100854.84;5043174;28;20079;-66
2023/08/08 10:52:29;;;;;;;0.20;0.00;;;;;;;22.83;56.80;100859.16;5043897;28;20044;-66
2023/08/08 10:54:55;;;;;;;0.20;0.00;;;;;;;22.80;56.51;100856.94;5045232;28;20025;-65
2023/08/08 10:57:24;;;;;;;0.05;0.00;;;;;;;22.83;56.19;100857.31;5048728;28;20024;-66
2023/08/08 10:59:50;;;;;;;0.10;0.00;;;;;;;22.98;56.00;100857.00;5043942;28;20072;-66
2023/08/08 11:02:16;;;;;;;0.10;0.00;;;;;;;22.91;55.54;100855.44;5049467;28;20060;-65
2023/08/08 11:04:42;;;;;;;0.05;0.00;;;;;;;22.88;55.06;100853.22;5048786;28;20054;-66
2023/08/08 11:07:08;;;;;;;0.13;0.00;;;;;;;22.94;55.86;100855.00;5048396;28;20043;-66
2023/08/08 11:09:34;;;;;;;0.00;0.00;;;;;;;22.89;53.68;100839.72;5046018;28;20387;-65
2023/08/08 11:11:59;;;;;;;0.10;0.00;;;;;;;23.03;54.17;100840.41;5049279;28;20040;-66
2023/08/08 11:14:25;;;;;;;0.08;0.00;;;;;;;23.07;54.25;100841.63;5045082;28;20021;-66
2023/08/08 11:16:51;;;;;;;0.20;0.00;;;;;;;23.10;54.10;100834.03;5043745;28;20120;-66